createdAt,value
2018-05-14T00:02:12.972Z,13.30
2018-05-14T00:04:41.023Z,13.20
2018-05-14T00:07:09.097Z,13.10
2018-05-14T00:09:37.337Z,13.10
2018-05-14T00:12:06.149Z,13.10
2018-05-14T00:14:34.210Z,13.10
2018-05-14T00:17:02.276Z,13.00
2018-05-14T00:19:31.105Z,12.80
2018-05-14T00:21:59.171Z,12.70
2018-05-14T00:24:27.238Z,12.60
2018-05-14T00:26:55.292Z,12.60
2018-05-14T00:29:23.348Z,12.50
2018-05-14T00:31:51.400Z,12.50
2018-05-14T00:34:20.233Z,12.50
2018-05-14T00:36:48.339Z,12.40
2018-05-14T00:39:16.409Z,12.40
2018-05-14T00:41:44.536Z,12.40
2018-05-14T00:44:12.599Z,12.40
2018-05-14T00:46:40.656Z,12.40
2018-05-14T00:49:09.488Z,12.30
2018-05-14T00:51:37.524Z,12.30
2018-05-14T00:54:05.581Z,12.30
2018-05-14T00:56:34.396Z,12.30
2018-05-14T00:59:02.444Z,12.30
2018-05-14T01:01:33.093Z,12.30
2018-05-14T01:04:01.095Z,12.30
2018-05-14T01:06:29.167Z,12.40
2018-05-14T01:08:57.199Z,12.30
2018-05-14T01:11:25.305Z,12.30
2018-05-14T01:13:53.361Z,12.30
2018-05-14T01:16:21.409Z,12.30
2018-05-14T01:18:49.477Z,12.30
2018-05-14T01:21:18.279Z,12.40
2018-05-14T01:23:46.362Z,12.40
2018-05-14T01:26:14.421Z,12.50
2018-05-14T01:28:42.482Z,12.40
2018-05-14T01:31:11.296Z,12.40
2018-05-14T01:33:39.347Z,12.30
2018-05-14T01:36:08.611Z,12.30
2018-05-14T01:38:36.665Z,12.20
2018-05-14T01:41:04.709Z,12.20
2018-05-14T01:43:32.766Z,12.20
2018-05-14T01:46:00.805Z,12.30
2018-05-14T01:48:29.620Z,12.20
2018-05-14T01:50:57.679Z,12.20
2018-05-14T01:53:26.600Z,12.30
2018-05-14T01:55:54.689Z,12.20
2018-05-14T01:58:22.741Z,12.30
2018-05-14T02:00:50.792Z,12.30
2018-05-14T02:03:18.892Z,12.30
2018-05-14T02:05:46.969Z,12.30
2018-05-14T02:08:15.004Z,12.30
2018-05-14T02:10:43.055Z,12.30
2018-05-14T02:13:11.885Z,12.30
2018-05-14T02:15:39.953Z,12.20
2018-05-14T02:18:08.768Z,12.30
2018-05-14T02:20:36.840Z,12.20
2018-05-14T02:23:04.880Z,12.20
2018-05-14T02:25:32.932Z,12.30
2018-05-14T02:28:00.987Z,12.30
2018-05-14T02:30:29.813Z,12.30
2018-05-14T02:32:57.863Z,12.40
2018-05-14T02:35:25.909Z,12.40
2018-05-14T02:37:55.728Z,12.20
2018-05-14T02:40:24.679Z,12.30
2018-05-14T02:42:52.731Z,12.20
2018-05-14T02:45:20.791Z,12.20
2018-05-14T02:47:48.832Z,12.20
2018-05-14T02:50:17.737Z,12.30
2018-05-14T02:52:46.389Z,12.30
2018-05-14T02:55:14.445Z,12.40
2018-05-14T02:57:42.491Z,12.40
2018-05-14T03:00:10.544Z,12.50
2018-05-14T03:02:38.645Z,12.60
2018-05-14T03:05:06.712Z,12.50
2018-05-14T03:07:34.752Z,12.40
2018-05-14T03:10:03.250Z,12.40
2018-05-14T03:12:31.302Z,12.40
2018-05-14T03:14:59.362Z,12.40
2018-05-14T03:17:30.079Z,12.50
2018-05-14T03:19:58.912Z,12.40
2018-05-14T03:22:26.966Z,12.40
2018-05-14T03:24:55.021Z,12.50
2018-05-14T03:27:23.827Z,12.50
2018-05-14T03:29:51.887Z,12.50
2018-05-14T03:32:20.716Z,12.40
2018-05-14T03:34:48.778Z,12.40
2018-05-14T03:37:16.933Z,12.40
2018-05-14T03:39:44.897Z,12.40
2018-05-14T03:42:12.952Z,12.30
2018-05-14T03:44:41.780Z,12.40
2018-05-14T03:47:09.853Z,12.40
2018-05-14T03:49:38.672Z,12.30
2018-05-14T03:52:06.757Z,12.30
2018-05-14T03:54:34.805Z,12.30
2018-05-14T03:57:02.865Z,12.30
2018-05-14T03:59:42.820Z,12.30
2018-05-14T04:02:22.727Z,12.30
2018-05-14T04:05:03.756Z,12.20
2018-05-14T04:07:31.827Z,12.20
2018-05-14T04:10:02.460Z,12.20
2018-05-14T04:12:31.367Z,12.30
2018-05-14T04:14:59.421Z,12.30
2018-05-14T04:17:27.895Z,12.30
2018-05-14T04:19:55.957Z,12.30
2018-05-14T04:22:24.029Z,12.40
2018-05-14T04:24:52.114Z,12.30
2018-05-14T04:27:20.167Z,12.40
2018-05-14T04:29:48.219Z,12.40
2018-05-14T04:32:16.275Z,12.40
2018-05-14T04:34:44.330Z,12.50
2018-05-14T04:37:13.150Z,12.50
2018-05-14T04:39:41.204Z,12.50
2018-05-14T04:42:09.285Z,12.40
2018-05-14T04:44:37.333Z,12.50
2018-05-14T04:47:06.157Z,12.50
2018-05-14T04:49:34.203Z,12.50
2018-05-14T04:52:02.260Z,12.50
2018-05-14T04:54:33.451Z,12.50
2018-05-14T04:57:01.611Z,12.50
2018-05-14T04:59:30.395Z,12.40
2018-05-14T05:01:58.462Z,12.40
2018-05-14T05:04:26.503Z,12.30
2018-05-14T05:06:55.337Z,12.30
2018-05-14T05:09:23.398Z,12.30
2018-05-14T05:11:51.478Z,12.30
2018-05-14T05:14:19.517Z,12.30
2018-05-14T05:16:47.581Z,12.30
2018-05-14T05:19:17.423Z,12.30
2018-05-14T05:21:50.506Z,12.40
2018-05-14T05:24:18.616Z,12.40
2018-05-14T05:26:48.077Z,12.40
2018-05-14T05:29:16.141Z,12.40
2018-05-14T05:31:44.211Z,12.50
2018-05-14T05:34:12.261Z,12.50
2018-05-14T05:36:41.096Z,12.40
2018-05-14T05:39:09.148Z,12.40
2018-05-14T05:41:37.216Z,12.50
2018-05-14T05:44:05.267Z,12.50
2018-05-14T05:46:34.096Z,12.60
2018-05-14T05:49:02.259Z,12.50
2018-05-14T05:51:30.331Z,12.60
2018-05-14T05:53:58.379Z,12.60
2018-05-14T05:56:27.197Z,12.60
2018-05-14T05:58:55.249Z,12.50
2018-05-14T06:01:23.384Z,12.40
2018-05-14T06:03:52.132Z,12.50
2018-05-14T06:06:20.177Z,12.50
2018-05-14T06:08:48.241Z,12.50
2018-05-14T06:11:16.293Z,12.60
2018-05-14T06:13:45.133Z,12.60
2018-05-14T06:16:13.197Z,12.60
2018-05-14T06:18:41.460Z,12.60
2018-05-14T06:21:09.505Z,12.60
2018-05-14T06:23:38.383Z,12.50
2018-05-14T06:26:06.432Z,12.50
2018-05-14T06:28:36.494Z,12.60
2018-05-14T06:31:05.356Z,12.50
2018-05-14T06:33:33.423Z,12.50
2018-05-14T06:36:04.879Z,12.60
2018-05-14T06:38:32.933Z,12.70
2018-05-14T06:41:00.997Z,12.80
2018-05-14T06:43:29.065Z,12.90
2018-05-14T06:45:58.281Z,13.00
2018-05-14T06:48:26.341Z,12.90
2018-05-14T06:50:54.405Z,13.00
2018-05-14T06:53:22.475Z,13.00
2018-05-14T06:55:50.517Z,13.00
2018-05-14T06:58:18.575Z,13.00
2018-05-14T07:00:46.624Z,13.20
2018-05-14T07:03:14.785Z,13.10
2018-05-14T07:05:42.749Z,13.10
2018-05-14T07:08:10.813Z,13.10
2018-05-14T07:10:38.864Z,13.20
2018-05-14T07:13:06.928Z,13.10
2018-05-14T07:15:34.975Z,13.30
2018-05-14T07:18:03.033Z,13.40
2018-05-14T07:20:31.973Z,13.50
2018-05-14T07:22:59.907Z,13.40
2018-05-14T07:25:27.960Z,13.50
2018-05-14T07:27:56.024Z,13.50
2018-05-14T07:30:24.837Z,13.40
2018-05-14T07:32:52.895Z,13.40
2018-05-14T07:35:20.948Z,13.40
2018-05-14T07:37:49.786Z,13.50
2018-05-14T07:40:17.852Z,13.40
2018-05-14T07:42:46.692Z,13.40
2018-05-14T07:45:14.748Z,13.30
2018-05-14T07:47:42.813Z,13.30
2018-05-14T07:50:10.876Z,13.30
2018-05-14T07:52:38.932Z,13.30
2018-05-14T07:55:07.031Z,13.30
2018-05-14T07:57:35.084Z,13.20
2018-05-14T08:00:03.161Z,13.30
2018-05-14T08:02:31.220Z,13.30
2018-05-14T08:04:59.276Z,13.30
2018-05-14T08:07:27.332Z,13.30
2018-05-14T08:09:55.538Z,13.40
2018-05-14T08:12:23.601Z,13.40
2018-05-14T08:14:51.667Z,13.60
2018-05-14T08:17:19.721Z,13.60
2018-05-14T08:19:47.805Z,13.70
2018-05-14T08:22:15.847Z,13.70
2018-05-14T08:24:44.671Z,13.70
2018-05-14T08:27:12.725Z,13.70
2018-05-14T08:29:40.784Z,13.80
2018-05-14T08:32:08.835Z,13.90
2018-05-14T08:34:37.673Z,14.00
2018-05-14T08:37:05.743Z,14.00
2018-05-14T08:39:33.880Z,13.90
2018-05-14T08:42:01.843Z,13.80
2018-05-14T08:44:30.725Z,13.70
2018-05-14T08:46:59.544Z,13.60
2018-05-14T08:49:27.603Z,13.70
2018-05-14T08:51:55.660Z,13.70
2018-05-14T08:54:24.558Z,13.60
2018-05-14T08:56:52.557Z,13.60
2018-05-14T08:59:20.623Z,13.70
2018-05-14T09:01:48.680Z,13.60
2018-05-14T09:04:16.757Z,13.70
2018-05-14T09:06:44.813Z,13.70
2018-05-14T09:09:13.650Z,13.80
2018-05-14T09:11:41.701Z,13.80
2018-05-14T09:14:09.815Z,14.00
2018-05-14T09:16:37.871Z,14.00
2018-05-14T09:19:05.931Z,14.00
2018-05-14T09:21:35.912Z,13.90
2018-05-14T09:24:04.880Z,14.00
2018-05-14T09:26:33.722Z,14.00
2018-05-14T09:29:01.781Z,13.90
2018-05-14T09:31:29.841Z,14.00
2018-05-14T09:33:57.893Z,13.90
2018-05-14T09:36:26.740Z,14.10
2018-05-14T09:38:54.788Z,14.00
2018-05-14T09:41:22.865Z,14.00
2018-05-14T09:43:50.928Z,13.90
2018-05-14T09:46:19.001Z,14.00
2018-05-14T09:48:47.048Z,13.90
2018-05-14T09:51:15.157Z,13.80
2018-05-14T09:53:43.224Z,13.80
2018-05-14T09:56:11.289Z,13.70
2018-05-14T09:58:39.356Z,13.70
2018-05-14T10:01:08.177Z,13.90
2018-05-14T10:03:36.231Z,13.90
2018-05-14T10:06:04.300Z,14.00
2018-05-14T10:08:32.353Z,14.10
2018-05-14T10:11:00.407Z,14.10
2018-05-14T10:13:28.472Z,14.20
2018-05-14T10:15:56.544Z,14.10
2018-05-14T10:18:24.604Z,14.00
2018-05-14T10:20:53.452Z,13.90
2018-05-14T10:23:21.504Z,13.90
2018-05-14T10:25:49.569Z,14.00
2018-05-14T10:28:17.660Z,14.20
2018-05-14T10:30:45.737Z,14.10
2018-05-14T10:33:13.793Z,14.20
2018-05-14T10:35:41.859Z,14.20
2018-05-14T10:38:10.682Z,14.30
2018-05-14T10:40:38.839Z,14.30
2018-05-14T10:43:06.816Z,14.30
2018-05-14T10:45:34.883Z,14.10
2018-05-14T10:48:02.935Z,14.10
2018-05-14T10:50:30.996Z,14.10
2018-05-14T10:52:59.051Z,14.20
2018-05-14T10:55:27.108Z,14.10
2018-05-14T10:57:55.164Z,14.20
2018-05-14T11:00:23.996Z,14.10
2018-05-14T11:02:52.305Z,14.10
2018-05-14T11:05:20.365Z,14.00
2018-05-14T11:07:48.428Z,13.90
2018-05-14T11:10:16.516Z,13.90
2018-05-14T11:12:44.588Z,13.80
2018-05-14T11:15:12.673Z,13.90
2018-05-14T11:17:40.744Z,13.90
2018-05-14T11:20:08.805Z,14.10
2018-05-14T11:22:36.900Z,14.00
2018-05-14T11:25:05.717Z,14.10
2018-05-14T11:27:33.802Z,14.10
2018-05-14T11:30:01.837Z,14.20
2018-05-14T11:32:30.668Z,14.30
2018-05-14T11:34:59.480Z,14.40
2018-05-14T11:37:27.548Z,14.40
2018-05-14T11:39:55.600Z,14.30
2018-05-14T11:42:23.669Z,14.40
2018-05-14T11:44:51.726Z,14.40
2018-05-14T11:47:19.789Z,14.40
2018-05-14T11:49:47.849Z,14.30
2018-05-14T11:52:15.916Z,14.20
2018-05-14T11:54:43.979Z,14.10
2018-05-14T11:57:12.042Z,14.10
2018-05-14T11:59:40.160Z,14.10
2018-05-14T12:02:08.266Z,14.10
2018-05-14T12:04:36.277Z,14.10
2018-05-14T12:07:04.488Z,14.00
2018-05-14T12:09:32.532Z,14.00
2018-05-14T12:12:00.600Z,14.00
2018-05-14T12:14:28.662Z,13.90
2018-05-14T12:16:57.493Z,13.90
2018-05-14T12:19:25.547Z,13.90
2018-05-14T12:21:53.603Z,13.90
2018-05-14T12:24:21.696Z,13.90
2018-05-14T12:26:49.763Z,14.00
2018-05-14T12:29:17.823Z,14.00
2018-05-14T12:31:45.880Z,14.10
2018-05-14T12:34:13.940Z,14.00
2018-05-14T12:36:42.762Z,14.00
2018-05-14T12:39:10.836Z,14.00
2018-05-14T12:41:38.898Z,14.10
2018-05-14T12:44:06.968Z,14.20
2018-05-14T12:46:35.021Z,14.10
2018-05-14T12:49:03.085Z,14.10
2018-05-14T12:51:31.132Z,14.20
2018-05-14T12:53:59.971Z,14.20
2018-05-14T12:56:28.017Z,14.20
2018-05-14T12:58:56.092Z,14.30
2018-05-14T13:01:24.920Z,14.30
2018-05-14T13:03:52.983Z,14.30
2018-05-14T13:06:21.900Z,14.40
2018-05-14T13:08:49.963Z,14.40
2018-05-14T13:11:18.022Z,14.50
2018-05-14T13:13:46.111Z,14.50
2018-05-14T13:16:14.166Z,14.40
2018-05-14T13:18:42.241Z,14.30
2018-05-14T13:21:10.292Z,14.30
2018-05-14T13:23:38.435Z,14.20
2018-05-14T13:26:06.497Z,14.20
2018-05-14T13:28:35.333Z,14.20
2018-05-14T13:31:03.391Z,14.20
2018-05-14T13:33:31.646Z,14.20
2018-05-14T13:35:59.707Z,14.20
2018-05-14T13:38:28.550Z,14.10
2018-05-14T13:40:58.601Z,14.10
2018-05-14T13:43:27.423Z,14.10
2018-05-14T13:45:55.486Z,14.10
2018-05-14T13:48:23.554Z,14.20
2018-05-14T13:50:51.693Z,14.30
2018-05-14T13:53:20.442Z,14.50
2018-05-14T13:55:48.507Z,14.50
2018-05-14T13:58:16.568Z,14.40
2018-05-14T14:00:44.644Z,14.30
2018-05-14T14:03:12.690Z,14.30
2018-05-14T14:05:41.552Z,14.50
2018-05-14T14:08:09.602Z,14.40
2018-05-14T14:10:37.667Z,14.40
2018-05-14T14:13:05.745Z,14.60
2018-05-14T14:15:33.806Z,14.70
2018-05-14T14:18:01.867Z,14.70
2018-05-14T14:20:29.932Z,14.70
2018-05-14T14:22:57.987Z,14.70
2018-05-14T14:25:26.057Z,14.70
2018-05-14T14:27:54.116Z,14.80
2018-05-14T14:30:22.952Z,14.70
2018-05-14T14:32:51.008Z,14.70
2018-05-14T14:35:19.087Z,14.70
2018-05-14T14:37:47.142Z,14.70
2018-05-14T14:40:15.210Z,14.70
2018-05-14T14:42:43.289Z,14.80
2018-05-14T14:45:13.376Z,14.90
2018-05-14T14:47:42.209Z,14.90
2018-05-14T14:50:10.341Z,14.90
2018-05-14T14:52:39.157Z,14.90
2018-05-14T14:55:07.223Z,14.90
2018-05-14T14:57:35.281Z,14.90
2018-05-14T15:00:03.344Z,15.00
2018-05-14T15:02:31.403Z,15.00
2018-05-14T15:05:00.237Z,15.00
2018-05-14T15:07:28.303Z,14.90
2018-05-14T15:09:56.366Z,15.00
2018-05-14T15:12:24.415Z,14.90
2018-05-14T15:14:54.271Z,15.00
2018-05-14T15:17:22.333Z,15.00
2018-05-14T15:19:50.395Z,15.10
2018-05-14T15:22:18.493Z,15.10
2018-05-14T15:24:46.568Z,15.00
2018-05-14T15:27:15.595Z,15.00
2018-05-14T15:29:44.422Z,15.10
2018-05-14T15:32:12.497Z,15.00
2018-05-14T15:34:40.572Z,15.00
2018-05-14T15:37:08.629Z,15.00
2018-05-14T15:39:36.684Z,15.10
2018-05-14T15:42:04.753Z,15.10
2018-05-14T15:44:32.800Z,15.10
2018-05-14T15:47:01.638Z,15.10
2018-05-14T15:49:29.705Z,15.00
2018-05-14T15:51:57.782Z,15.10
2018-05-14T15:54:25.884Z,15.10
2018-05-14T15:56:54.357Z,15.10
2018-05-14T15:59:22.399Z,15.20
2018-05-14T16:01:50.539Z,15.20
2018-05-14T16:04:18.536Z,15.40
2018-05-14T16:06:46.592Z,15.20
2018-05-14T16:09:14.652Z,15.10
2018-05-14T16:11:43.479Z,15.10
2018-05-14T16:14:11.558Z,15.10
2018-05-14T16:16:39.628Z,15.10
2018-05-14T16:19:07.687Z,15.00
2018-05-14T16:21:35.761Z,15.00
2018-05-14T16:24:03.848Z,14.90
2018-05-14T16:26:31.929Z,14.90
2018-05-14T16:29:00.085Z,14.90
2018-05-14T16:31:28.152Z,14.90
2018-05-14T16:33:56.212Z,14.90
2018-05-14T16:36:25.309Z,14.90
2018-05-14T16:38:53.370Z,14.90
2018-05-14T16:41:21.580Z,14.90
2018-05-14T16:43:49.636Z,14.90
2018-05-14T16:46:17.707Z,14.90
2018-05-14T16:48:45.819Z,14.90
2018-05-14T16:51:13.888Z,15.00
2018-05-14T16:56:38.381Z,14.90
2018-05-14T16:59:06.453Z,14.90
2018-05-14T17:01:34.531Z,14.80
2018-05-14T17:04:02.859Z,14.80
2018-05-14T17:06:30.841Z,14.80
2018-05-14T17:08:58.926Z,14.70
2018-05-14T17:11:27.014Z,14.70
2018-05-14T17:13:55.084Z,14.70
2018-05-14T17:16:23.148Z,14.70
2018-05-14T17:18:51.217Z,14.60
2018-05-14T17:21:19.288Z,14.60
2018-05-14T17:23:47.371Z,14.70
2018-05-14T17:26:15.480Z,14.70
2018-05-14T17:28:43.535Z,14.70
2018-05-14T17:31:12.376Z,14.80
2018-05-14T17:33:40.553Z,14.80
2018-05-14T17:36:08.716Z,14.90
2018-05-14T17:38:36.772Z,14.90
2018-05-14T17:41:04.846Z,14.90
2018-05-14T17:43:38.053Z,15.10
2018-05-14T17:46:06.104Z,15.00
2018-05-14T17:48:35.183Z,15.10
2018-05-14T17:51:04.177Z,15.10
2018-05-14T17:53:33.017Z,15.10
2018-05-14T17:56:01.072Z,15.10
2018-05-14T17:58:29.287Z,15.10
2018-05-14T18:00:57.340Z,15.10
2018-05-14T18:03:25.396Z,15.10
2018-05-14T18:05:53.673Z,15.10
2018-05-14T18:08:22.712Z,15.10
2018-05-14T18:10:51.650Z,15.10
2018-05-14T18:13:19.630Z,15.10
2018-05-14T18:15:47.684Z,15.10
2018-05-14T18:18:15.756Z,15.00
2018-05-14T18:20:46.341Z,15.00
2018-05-14T18:23:20.011Z,15.00
2018-05-14T18:25:55.049Z,14.90
2018-05-14T18:28:38.888Z,14.90
2018-05-14T18:31:06.976Z,14.90
2018-05-14T18:33:35.043Z,14.90
2018-05-14T18:36:03.109Z,14.90
2018-05-14T18:38:31.186Z,14.90
2018-05-14T18:40:59.400Z,14.90
2018-05-14T18:43:27.447Z,14.90
2018-05-14T18:45:56.734Z,14.80
2018-05-14T18:48:25.590Z,14.80
2018-05-14T18:50:55.471Z,14.80
2018-05-14T18:53:23.516Z,14.80
2018-05-14T18:55:52.495Z,14.80
2018-05-14T18:58:21.608Z,14.70
2018-05-14T19:00:54.837Z,14.70
2018-05-14T19:03:22.912Z,14.70
2018-05-14T19:05:51.008Z,14.70
2018-05-14T19:08:19.075Z,14.70
2018-05-14T19:10:56.568Z,14.70
2018-05-14T19:13:24.624Z,14.70
2018-05-14T19:15:58.392Z,14.70
2018-05-14T19:18:26.539Z,14.70
2018-05-14T19:20:54.614Z,14.70
2018-05-14T19:23:28.408Z,14.70
2018-05-14T19:25:57.472Z,14.80
2018-05-14T19:28:32.486Z,14.70
2018-05-14T19:31:00.541Z,14.80
2018-05-14T19:33:34.961Z,14.70
2018-05-14T19:36:03.116Z,14.70
2018-05-14T19:38:31.979Z,14.70
2018-05-14T19:41:00.352Z,14.70
2018-05-14T19:43:28.400Z,14.70
2018-05-14T19:46:05.024Z,14.80
2018-05-14T19:48:33.149Z,14.70
2018-05-14T19:51:03.241Z,14.70
2018-05-14T19:53:31.333Z,14.70
2018-05-14T19:55:59.452Z,14.70
2018-05-14T19:58:27.520Z,14.70
2018-05-14T20:00:55.773Z,14.70
2018-05-14T20:03:23.903Z,14.70
2018-05-14T20:05:52.288Z,14.70
2018-05-14T20:08:20.464Z,14.70
2018-05-14T20:10:48.566Z,14.70
2018-05-14T20:13:16.609Z,14.80
2018-05-14T20:15:44.754Z,14.70
2018-05-14T20:18:13.580Z,14.70
2018-05-14T20:20:41.678Z,14.70
2018-05-14T20:23:09.742Z,14.70
2018-05-14T20:25:37.823Z,14.70
2018-05-14T20:28:06.340Z,14.70
2018-05-14T20:30:34.447Z,14.70
2018-05-14T20:33:03.489Z,14.70
2018-05-14T20:35:34.110Z,14.60
2018-05-14T20:38:02.183Z,14.60
2018-05-14T20:40:30.258Z,14.60
2018-05-14T20:42:58.338Z,14.60
2018-05-14T20:45:26.376Z,14.60
2018-05-14T20:47:54.457Z,14.60
2018-05-14T20:50:25.391Z,14.60
2018-05-14T20:52:53.474Z,14.60
2018-05-14T20:55:21.570Z,14.60
2018-05-14T20:57:49.705Z,14.60
2018-05-14T21:00:17.809Z,14.60
2018-05-14T21:02:45.877Z,14.60
2018-05-14T21:05:14.003Z,14.60
2018-05-14T21:07:42.070Z,14.60
2018-05-14T21:10:10.558Z,14.60
2018-05-14T21:12:38.712Z,14.60
2018-05-14T21:15:07.858Z,14.70
2018-05-14T21:17:35.922Z,14.70
2018-05-14T21:20:04.137Z,14.70
2018-05-14T21:22:32.195Z,14.70
2018-05-14T21:25:01.032Z,14.70
2018-05-14T21:27:29.736Z,14.60
2018-05-14T21:29:57.799Z,14.70
2018-05-14T21:32:25.859Z,14.70
2018-05-14T21:34:55.695Z,14.60
2018-05-14T21:37:23.818Z,14.60
2018-05-14T21:39:51.883Z,14.60
2018-05-14T21:42:20.904Z,14.60
2018-05-14T21:44:49.361Z,14.60
2018-05-14T21:47:18.392Z,14.60
2018-05-14T21:49:46.415Z,14.60
2018-05-14T21:52:14.473Z,14.70
2018-05-14T21:54:45.223Z,14.70
2018-05-14T21:57:13.667Z,14.70
2018-05-14T21:59:41.740Z,14.80
2018-05-14T22:02:09.823Z,14.70
2018-05-14T22:04:38.289Z,14.70
2018-05-14T22:07:06.357Z,14.70
2018-05-14T22:09:34.420Z,14.70
2018-05-14T22:12:02.502Z,14.70
2018-05-14T22:14:30.551Z,14.70
2018-05-14T22:16:59.467Z,14.80
2018-05-14T22:19:27.602Z,14.70
2018-05-14T22:21:55.674Z,14.50
2018-05-14T22:24:23.735Z,14.40
2018-05-14T22:26:52.609Z,14.40
2018-05-14T22:29:20.661Z,14.30
2018-05-14T22:31:50.496Z,14.30
2018-05-14T22:34:18.585Z,14.30
2018-05-14T22:36:46.992Z,14.30
2018-05-14T22:39:15.364Z,14.30
2018-05-14T22:41:43.497Z,14.30
2018-05-14T22:44:11.563Z,14.30
2018-05-14T22:46:39.983Z,14.30
2018-05-14T22:49:08.054Z,14.20
2018-05-14T22:51:36.111Z,14.30
2018-05-14T22:54:04.212Z,14.30
2018-05-14T22:56:32.364Z,14.20
2018-05-14T22:59:00.437Z,14.20
2018-05-14T23:01:28.517Z,14.30
2018-05-14T23:03:56.592Z,14.30
2018-05-14T23:06:24.653Z,14.30
2018-05-14T23:08:54.420Z,14.40
2018-05-14T23:11:22.858Z,14.50
2018-05-14T23:13:50.946Z,14.50
2018-05-14T23:16:19.017Z,14.50
2018-05-14T23:18:47.157Z,14.50
2018-05-14T23:21:15.228Z,14.40
2018-05-14T23:23:43.309Z,14.40
2018-05-14T23:26:11.375Z,14.30
2018-05-14T23:28:39.453Z,14.30
2018-05-14T23:31:07.536Z,14.30
2018-05-14T23:33:35.620Z,14.20
2018-05-14T23:36:03.688Z,14.30
2018-05-14T23:38:31.741Z,14.30
2018-05-14T23:40:59.816Z,14.30
2018-05-14T23:43:27.877Z,14.30
2018-05-14T23:45:56.025Z,14.20
2018-05-14T23:48:24.324Z,14.20
2018-05-14T23:50:52.381Z,14.20
2018-05-14T23:53:20.717Z,14.10
2018-05-14T23:55:49.559Z,14.10
2018-05-14T23:58:17.616Z,14.10
